sensor_id;sensor_type;location;lat;lon;timestamp;P1;durP1;ratioP1;P2;durP2;ratioP2
25932;SDS011;13731;51.166;4.474;2023-05-20T00:00:27;43.28;;;40.45;;
25932;SDS011;13731;51.166;4.474;2023-05-20T00:02:52;43.17;;;40.22;;
25932;SDS011;13731;51.166;4.474;2023-05-20T00:05:18;46.70;;;43.38;;
25932;SDS011;13731;51.166;4.474;2023-05-20T00:07:45;44.50;;;41.60;;
25932;SDS011;13731;51.166;4.474;2023-05-20T00:10:11;40.42;;;37.72;;
25932;SDS011;13731;51.166;4.474;2023-05-20T00:12:37;44.30;;;40.67;;
25932;SDS011;13731;51.166;4.474;2023-05-20T00:15:04;41.13;;;38.58;;
25932;SDS011;13731;51.166;4.474;2023-05-20T00:17:30;42.38;;;39.20;;
25932;SDS011;13731;51.166;4.474;2023-05-20T00:19:56;42.72;;;39.53;;
25932;SDS011;13731;51.166;4.474;2023-05-20T00:22:23;38.85;;;36.47;;
25932;SDS011;13731;51.166;4.474;2023-05-20T00:24:49;37.35;;;34.40;;
25932;SDS011;13731;51.166;4.474;2023-05-20T00:27:15;38.28;;;35.08;;
25932;SDS011;13731;51.166;4.474;2023-05-20T00:29:41;36.40;;;34.20;;
25932;SDS011;13731;51.166;4.474;2023-05-20T00:32:06;38.42;;;36.10;;
25932;SDS011;13731;51.166;4.474;2023-05-20T00:34:32;41.13;;;38.70;;
25932;SDS011;13731;51.166;4.474;2023-05-20T00:36:58;42.58;;;39.92;;
25932;SDS011;13731;51.166;4.474;2023-05-20T00:39:24;42.40;;;39.60;;
25932;SDS011;13731;51.166;4.474;2023-05-20T00:41:50;41.70;;;39.17;;
25932;SDS011;13731;51.166;4.474;2023-05-20T00:44:16;41.35;;;38.83;;
25932;SDS011;13731;51.166;4.474;2023-05-20T00:46:43;38.67;;;36.08;;
25932;SDS011;13731;51.166;4.474;2023-05-20T00:49:12;39.08;;;36.63;;
25932;SDS011;13731;51.166;4.474;2023-05-20T00:51:38;35.67;;;33.28;;
25932;SDS011;13731;51.166;4.474;2023-05-20T00:54:04;35.25;;;32.78;;
25932;SDS011;13731;51.166;4.474;2023-05-20T00:56:30;33.95;;;31.42;;
25932;SDS011;13731;51.166;4.474;2023-05-20T00:58:56;30.30;;;28.30;;
25932;SDS011;13731;51.166;4.474;2023-05-20T01:01:22;30.02;;;28.08;;
25932;SDS011;13731;51.166;4.474;2023-05-20T01:03:48;29.45;;;27.48;;
25932;SDS011;13731;51.166;4.474;2023-05-20T01:06:14;28.80;;;27.10;;
25932;SDS011;13731;51.166;4.474;2023-05-20T01:08:40;28.73;;;26.92;;
25932;SDS011;13731;51.166;4.474;2023-05-20T01:11:27;26.40;;;24.40;;
25932;SDS011;13731;51.166;4.474;2023-05-20T01:14:00;24.52;;;22.80;;
25932;SDS011;13731;51.166;4.474;2023-05-20T01:16:28;25.75;;;23.85;;
25932;SDS011;13731;51.166;4.474;2023-05-20T01:18:58;24.75;;;23.10;;
25932;SDS011;13731;51.166;4.474;2023-05-20T01:21:27;25.90;;;23.98;;
25932;SDS011;13731;51.166;4.474;2023-05-20T01:23:54;25.00;;;23.30;;
25932;SDS011;13731;51.166;4.474;2023-05-20T01:26:20;24.65;;;22.80;;
25932;SDS011;13731;51.166;4.474;2023-05-20T01:28:51;23.88;;;22.38;;
25932;SDS011;13731;51.166;4.474;2023-05-20T01:31:18;24.65;;;23.10;;
25932;SDS011;13731;51.166;4.474;2023-05-20T01:33:49;25.00;;;23.45;;
25932;SDS011;13731;51.166;4.474;2023-05-20T01:36:22;26.55;;;24.52;;
25932;SDS011;13731;51.166;4.474;2023-05-20T01:38:49;25.45;;;23.60;;
25932;SDS011;13731;51.166;4.474;2023-05-20T01:41:16;24.48;;;22.92;;
25932;SDS011;13731;51.166;4.474;2023-05-20T01:43:43;25.00;;;23.30;;
25932;SDS011;13731;51.166;4.474;2023-05-20T01:46:09;25.02;;;23.13;;
25932;SDS011;13731;51.166;4.474;2023-05-20T01:48:34;25.95;;;24.10;;
25932;SDS011;13731;51.166;4.474;2023-05-20T01:51:02;25.75;;;24.02;;
25932;SDS011;13731;51.166;4.474;2023-05-20T01:53:28;25.00;;;23.50;;
25932;SDS011;13731;51.166;4.474;2023-05-20T01:55:54;25.15;;;23.48;;
25932;SDS011;13731;51.166;4.474;2023-05-20T01:58:20;24.95;;;23.17;;
25932;SDS011;13731;51.166;4.474;2023-05-20T02:00:46;26.70;;;24.50;;
25932;SDS011;13731;51.166;4.474;2023-05-20T02:03:12;27.60;;;25.77;;
25932;SDS011;13731;51.166;4.474;2023-05-20T02:05:38;28.67;;;26.65;;
25932;SDS011;13731;51.166;4.474;2023-05-20T02:08:04;27.80;;;26.10;;
25932;SDS011;13731;51.166;4.474;2023-05-20T02:10:30;29.23;;;27.20;;
25932;SDS011;13731;51.166;4.474;2023-05-20T02:12:56;28.80;;;27.00;;
25932;SDS011;13731;51.166;4.474;2023-05-20T02:15:23;31.25;;;29.20;;
25932;SDS011;13731;51.166;4.474;2023-05-20T02:17:49;31.42;;;29.63;;
25932;SDS011;13731;51.166;4.474;2023-05-20T02:20:14;33.00;;;30.73;;
25932;SDS011;13731;51.166;4.474;2023-05-20T02:22:40;32.20;;;30.20;;
25932;SDS011;13731;51.166;4.474;2023-05-20T02:25:08;35.72;;;33.35;;
25932;SDS011;13731;51.166;4.474;2023-05-20T02:27:35;33.10;;;30.95;;
25932;SDS011;13731;51.166;4.474;2023-05-20T02:30:01;32.08;;;30.02;;
25932;SDS011;13731;51.166;4.474;2023-05-20T02:32:26;34.17;;;32.17;;
25932;SDS011;13731;51.166;4.474;2023-05-20T02:34:53;33.33;;;30.67;;
25932;SDS011;13731;51.166;4.474;2023-05-20T02:37:19;34.95;;;32.40;;
25932;SDS011;13731;51.166;4.474;2023-05-20T02:39:45;33.88;;;31.80;;
25932;SDS011;13731;51.166;4.474;2023-05-20T02:42:13;35.97;;;33.35;;
25932;SDS011;13731;51.166;4.474;2023-05-20T02:44:39;37.33;;;34.33;;
25932;SDS011;13731;51.166;4.474;2023-05-20T02:47:05;37.10;;;34.70;;
25932;SDS011;13731;51.166;4.474;2023-05-20T02:49:31;37.50;;;35.05;;
25932;SDS011;13731;51.166;4.474;2023-05-20T02:51:57;37.60;;;35.20;;
25932;SDS011;13731;51.166;4.474;2023-05-20T02:54:23;38.42;;;35.40;;
25932;SDS011;13731;51.166;4.474;2023-05-20T02:56:49;36.28;;;33.58;;
25932;SDS011;13731;51.166;4.474;2023-05-20T02:59:14;39.17;;;36.42;;
25932;SDS011;13731;51.166;4.474;2023-05-20T03:01:40;37.72;;;35.42;;
25932;SDS011;13731;51.166;4.474;2023-05-20T03:04:07;42.53;;;39.45;;
25932;SDS011;13731;51.166;4.474;2023-05-20T03:06:33;38.17;;;35.80;;
25932;SDS011;13731;51.166;4.474;2023-05-20T03:08:59;44.30;;;41.75;;
25932;SDS011;13731;51.166;4.474;2023-05-20T03:11:25;41.17;;;38.40;;
25932;SDS011;13731;51.166;4.474;2023-05-20T03:13:51;38.90;;;36.25;;
25932;SDS011;13731;51.166;4.474;2023-05-20T03:16:17;39.47;;;37.35;;
25932;SDS011;13731;51.166;4.474;2023-05-20T03:18:44;38.80;;;36.20;;
25932;SDS011;13731;51.166;4.474;2023-05-20T03:21:11;40.47;;;37.83;;
25932;SDS011;13731;51.166;4.474;2023-05-20T03:23:37;49.50;;;46.70;;
25932;SDS011;13731;51.166;4.474;2023-05-20T03:26:03;40.55;;;37.58;;
25932;SDS011;13731;51.166;4.474;2023-05-20T03:28:32;42.93;;;40.43;;
25932;SDS011;13731;51.166;4.474;2023-05-20T03:30:58;43.33;;;40.83;;
25932;SDS011;13731;51.166;4.474;2023-05-20T03:33:23;42.08;;;39.58;;
25932;SDS011;13731;51.166;4.474;2023-05-20T03:35:51;45.75;;;42.33;;
25932;SDS011;13731;51.166;4.474;2023-05-20T03:38:17;44.28;;;41.08;;
25932;SDS011;13731;51.166;4.474;2023-05-20T03:40:43;43.80;;;40.95;;
25932;SDS011;13731;51.166;4.474;2023-05-20T03:43:08;45.85;;;42.85;;
25932;SDS011;13731;51.166;4.474;2023-05-20T03:45:35;46.92;;;43.60;;
25932;SDS011;13731;51.166;4.474;2023-05-20T03:48:03;54.08;;;50.65;;
25932;SDS011;13731;51.166;4.474;2023-05-20T03:50:32;54.47;;;50.92;;
25932;SDS011;13731;51.166;4.474;2023-05-20T03:53:01;56.55;;;53.20;;
25932;SDS011;13731;51.166;4.474;2023-05-20T03:55:33;55.20;;;51.60;;
25932;SDS011;13731;51.166;4.474;2023-05-20T03:57:59;55.85;;;52.83;;
25932;SDS011;13731;51.166;4.474;2023-05-20T04:00:26;57.88;;;54.58;;
25932;SDS011;13731;51.166;4.474;2023-05-20T04:02:55;58.75;;;55.50;;
25932;SDS011;13731;51.166;4.474;2023-05-20T04:05:22;58.30;;;54.47;;
25932;SDS011;13731;51.166;4.474;2023-05-20T04:07:49;57.57;;;54.37;;
25932;SDS011;13731;51.166;4.474;2023-05-20T04:10:17;59.47;;;55.60;;
25932;SDS011;13731;51.166;4.474;2023-05-20T04:12:44;57.22;;;53.22;;
25932;SDS011;13731;51.166;4.474;2023-05-20T04:15:11;59.45;;;55.50;;
25932;SDS011;13731;51.166;4.474;2023-05-20T04:17:46;58.10;;;53.88;;
25932;SDS011;13731;51.166;4.474;2023-05-20T04:20:13;57.70;;;54.17;;
25932;SDS011;13731;51.166;4.474;2023-05-20T04:22:38;57.20;;;54.00;;
25932;SDS011;13731;51.166;4.474;2023-05-20T04:25:05;56.60;;;53.53;;
25932;SDS011;13731;51.166;4.474;2023-05-20T04:27:32;58.85;;;55.35;;
25932;SDS011;13731;51.166;4.474;2023-05-20T04:29:58;58.22;;;54.45;;
25932;SDS011;13731;51.166;4.474;2023-05-20T04:34:54;50.65;;;47.47;;
25932;SDS011;13731;51.166;4.474;2023-05-20T04:37:22;56.47;;;53.17;;
25932;SDS011;13731;51.166;4.474;2023-05-20T04:39:49;58.10;;;54.63;;
25932;SDS011;13731;51.166;4.474;2023-05-20T04:42:15;56.00;;;52.30;;
25932;SDS011;13731;51.166;4.474;2023-05-20T04:44:42;53.05;;;49.83;;
25932;SDS011;13731;51.166;4.474;2023-05-20T04:47:10;52.13;;;49.15;;
25932;SDS011;13731;51.166;4.474;2023-05-20T04:49:37;55.33;;;51.75;;
25932;SDS011;13731;51.166;4.474;2023-05-20T04:52:03;51.40;;;47.95;;
25932;SDS011;13731;51.166;4.474;2023-05-20T04:54:30;49.20;;;46.25;;
25932;SDS011;13731;51.166;4.474;2023-05-20T04:56:57;45.55;;;43.00;;
25932;SDS011;13731;51.166;4.474;2023-05-20T04:59:24;45.72;;;42.15;;
25932;SDS011;13731;51.166;4.474;2023-05-20T05:01:50;44.83;;;41.72;;
25932;SDS011;13731;51.166;4.474;2023-05-20T05:04:16;42.83;;;39.95;;
25932;SDS011;13731;51.166;4.474;2023-05-20T05:06:42;41.28;;;38.50;;
25932;SDS011;13731;51.166;4.474;2023-05-20T05:09:08;44.28;;;41.58;;
25932;SDS011;13731;51.166;4.474;2023-05-20T05:11:37;41.33;;;38.75;;
25932;SDS011;13731;51.166;4.474;2023-05-20T05:14:03;42.75;;;39.83;;
25932;SDS011;13731;51.166;4.474;2023-05-20T05:16:29;41.72;;;38.97;;
25932;SDS011;13731;51.166;4.474;2023-05-20T05:18:56;38.17;;;35.75;;
25932;SDS011;13731;51.166;4.474;2023-05-20T05:21:22;38.20;;;35.58;;
25932;SDS011;13731;51.166;4.474;2023-05-20T05:23:48;40.00;;;37.42;;
25932;SDS011;13731;51.166;4.474;2023-05-20T05:26:14;38.42;;;35.90;;
25932;SDS011;13731;51.166;4.474;2023-05-20T05:28:40;36.13;;;33.83;;
25932;SDS011;13731;51.166;4.474;2023-05-20T05:31:07;36.58;;;33.92;;
25932;SDS011;13731;51.166;4.474;2023-05-20T05:33:33;35.92;;;33.33;;
25932;SDS011;13731;51.166;4.474;2023-05-20T05:35:59;37.30;;;34.63;;
25932;SDS011;13731;51.166;4.474;2023-05-20T05:38:28;37.55;;;34.72;;
25932;SDS011;13731;51.166;4.474;2023-05-20T05:40:53;36.10;;;33.58;;
25932;SDS011;13731;51.166;4.474;2023-05-20T05:43:20;37.38;;;34.83;;
25932;SDS011;13731;51.166;4.474;2023-05-20T05:45:47;38.65;;;36.22;;
25932;SDS011;13731;51.166;4.474;2023-05-20T05:48:13;39.28;;;36.50;;
25932;SDS011;13731;51.166;4.474;2023-05-20T05:50:42;37.13;;;34.65;;
25932;SDS011;13731;51.166;4.474;2023-05-20T05:53:10;36.55;;;34.15;;
25932;SDS011;13731;51.166;4.474;2023-05-20T05:55:38;36.13;;;33.75;;
25932;SDS011;13731;51.166;4.474;2023-05-20T05:58:04;35.47;;;33.47;;
25932;SDS011;13731;51.166;4.474;2023-05-20T06:00:29;34.72;;;32.35;;
25932;SDS011;13731;51.166;4.474;2023-05-20T06:02:55;32.90;;;30.98;;
25932;SDS011;13731;51.166;4.474;2023-05-20T06:05:31;32.80;;;30.60;;
25932;SDS011;13731;51.166;4.474;2023-05-20T06:07:57;31.63;;;29.35;;
25932;SDS011;13731;51.166;4.474;2023-05-20T06:10:24;32.30;;;30.13;;
25932;SDS011;13731;51.166;4.474;2023-05-20T06:12:50;32.70;;;30.75;;
25932;SDS011;13731;51.166;4.474;2023-05-20T06:15:16;33.42;;;31.20;;
25932;SDS011;13731;51.166;4.474;2023-05-20T06:17:43;32.95;;;30.70;;
25932;SDS011;13731;51.166;4.474;2023-05-20T06:20:09;33.20;;;30.25;;
25932;SDS011;13731;51.166;4.474;2023-05-20T06:22:35;32.20;;;30.23;;
25932;SDS011;13731;51.166;4.474;2023-05-20T06:25:02;31.23;;;29.33;;
25932;SDS011;13731;51.166;4.474;2023-05-20T06:27:29;32.20;;;29.85;;
25932;SDS011;13731;51.166;4.474;2023-05-20T06:29:55;33.63;;;31.63;;
25932;SDS011;13731;51.166;4.474;2023-05-20T06:32:21;32.55;;;30.60;;
25932;SDS011;13731;51.166;4.474;2023-05-20T06:34:47;34.47;;;32.47;;
25932;SDS011;13731;51.166;4.474;2023-05-20T06:37:13;35.78;;;33.65;;
25932;SDS011;13731;51.166;4.474;2023-05-20T06:39:39;35.03;;;32.83;;
25932;SDS011;13731;51.166;4.474;2023-05-20T06:42:06;36.83;;;34.42;;
25932;SDS011;13731;51.166;4.474;2023-05-20T06:44:34;38.13;;;35.75;;
25932;SDS011;13731;51.166;4.474;2023-05-20T06:47:15;38.10;;;35.78;;
25932;SDS011;13731;51.166;4.474;2023-05-20T06:49:44;38.17;;;35.38;;
25932;SDS011;13731;51.166;4.474;2023-05-20T06:52:09;41.10;;;38.38;;
25932;SDS011;13731;51.166;4.474;2023-05-20T06:54:39;40.38;;;37.78;;
25932;SDS011;13731;51.166;4.474;2023-05-20T06:57:08;32.72;;;30.83;;
25932;SDS011;13731;51.166;4.474;2023-05-20T06:59:35;31.83;;;29.55;;
25932;SDS011;13731;51.166;4.474;2023-05-20T07:02:03;32.08;;;29.88;;
25932;SDS011;13731;51.166;4.474;2023-05-20T07:04:29;31.50;;;29.23;;
25932;SDS011;13731;51.166;4.474;2023-05-20T07:06:55;30.48;;;28.25;;
25932;SDS011;13731;51.166;4.474;2023-05-20T07:09:21;31.10;;;29.30;;
25932;SDS011;13731;51.166;4.474;2023-05-20T07:11:47;33.28;;;31.27;;
25932;SDS011;13731;51.166;4.474;2023-05-20T07:14:12;29.88;;;28.00;;
25932;SDS011;13731;51.166;4.474;2023-05-20T07:16:39;31.33;;;29.48;;
25932;SDS011;13731;51.166;4.474;2023-05-20T07:19:05;28.92;;;27.08;;
25932;SDS011;13731;51.166;4.474;2023-05-20T07:21:32;23.98;;;22.50;;
25932;SDS011;13731;51.166;4.474;2023-05-20T07:24:07;25.50;;;23.80;;
25932;SDS011;13731;51.166;4.474;2023-05-20T07:26:33;24.65;;;22.80;;
25932;SDS011;13731;51.166;4.474;2023-05-20T07:29:01;22.45;;;21.00;;
25932;SDS011;13731;51.166;4.474;2023-05-20T07:31:28;21.35;;;20.13;;
25932;SDS011;13731;51.166;4.474;2023-05-20T07:33:55;23.48;;;21.80;;
25932;SDS011;13731;51.166;4.474;2023-05-20T07:36:21;22.23;;;20.98;;
25932;SDS011;13731;51.166;4.474;2023-05-20T07:38:49;21.70;;;20.20;;
25932;SDS011;13731;51.166;4.474;2023-05-20T07:41:16;19.92;;;18.55;;
25932;SDS011;13731;51.166;4.474;2023-05-20T07:43:42;19.75;;;18.17;;
25932;SDS011;13731;51.166;4.474;2023-05-20T07:46:09;21.80;;;20.42;;
25932;SDS011;13731;51.166;4.474;2023-05-20T07:48:35;18.20;;;17.00;;
25932;SDS011;13731;51.166;4.474;2023-05-20T07:51:01;20.05;;;18.75;;
25932;SDS011;13731;51.166;4.474;2023-05-20T07:53:28;20.88;;;19.73;;
25932;SDS011;13731;51.166;4.474;2023-05-20T07:55:54;19.30;;;17.73;;
25932;SDS011;13731;51.166;4.474;2023-05-20T07:58:21;21.45;;;20.10;;
25932;SDS011;13731;51.166;4.474;2023-05-20T08:00:48;20.45;;;18.67;;
25932;SDS011;13731;51.166;4.474;2023-05-20T08:03:14;17.10;;;16.20;;
25932;SDS011;13731;51.166;4.474;2023-05-20T08:06:12;19.67;;;18.30;;
25932;SDS011;13731;51.166;4.474;2023-05-20T08:08:39;17.98;;;16.48;;
25932;SDS011;13731;51.166;4.474;2023-05-20T08:11:10;18.80;;;17.23;;
25932;SDS011;13731;51.166;4.474;2023-05-20T08:13:38;16.65;;;15.45;;
25932;SDS011;13731;51.166;4.474;2023-05-20T08:16:04;15.93;;;14.93;;
25932;SDS011;13731;51.166;4.474;2023-05-20T08:18:31;16.10;;;14.73;;
25932;SDS011;13731;51.166;4.474;2023-05-20T08:20:58;16.40;;;14.85;;
25932;SDS011;13731;51.166;4.474;2023-05-20T08:23:24;18.15;;;17.23;;
25932;SDS011;13731;51.166;4.474;2023-05-20T08:25:51;17.00;;;16.00;;
25932;SDS011;13731;51.166;4.474;2023-05-20T08:28:19;18.33;;;17.13;;
25932;SDS011;13731;51.166;4.474;2023-05-20T08:30:46;19.15;;;18.00;;
25932;SDS011;13731;51.166;4.474;2023-05-20T08:33:13;24.20;;;22.42;;
25932;SDS011;13731;51.166;4.474;2023-05-20T08:35:39;21.35;;;19.83;;
25932;SDS011;13731;51.166;4.474;2023-05-20T08:38:06;19.05;;;17.77;;
25932;SDS011;13731;51.166;4.474;2023-05-20T08:40:35;21.92;;;20.38;;
25932;SDS011;13731;51.166;4.474;2023-05-20T08:43:01;18.55;;;17.48;;
25932;SDS011;13731;51.166;4.474;2023-05-20T08:45:27;17.73;;;16.52;;
25932;SDS011;13731;51.166;4.474;2023-05-20T08:48:01;19.02;;;17.83;;
25932;SDS011;13731;51.166;4.474;2023-05-20T08:50:29;17.73;;;16.60;;
25932;SDS011;13731;51.166;4.474;2023-05-20T08:52:58;18.90;;;17.65;;
25932;SDS011;13731;51.166;4.474;2023-05-20T08:55:25;18.70;;;17.48;;
25932;SDS011;13731;51.166;4.474;2023-05-20T08:57:51;17.52;;;16.52;;
25932;SDS011;13731;51.166;4.474;2023-05-20T09:00:19;18.92;;;17.83;;
25932;SDS011;13731;51.166;4.474;2023-05-20T09:02:47;19.83;;;18.42;;
25932;SDS011;13731;51.166;4.474;2023-05-20T09:05:13;29.38;;;16.23;;
25932;SDS011;13731;51.166;4.474;2023-05-20T09:07:39;16.88;;;15.60;;
25932;SDS011;13731;51.166;4.474;2023-05-20T09:10:07;16.17;;;15.25;;
25932;SDS011;13731;51.166;4.474;2023-05-20T09:12:34;17.58;;;16.35;;
25932;SDS011;13731;51.166;4.474;2023-05-20T09:15:00;16.33;;;15.27;;
25932;SDS011;13731;51.166;4.474;2023-05-20T09:17:26;16.48;;;15.18;;
25932;SDS011;13731;51.166;4.474;2023-05-20T09:19:52;16.60;;;15.38;;
25932;SDS011;13731;51.166;4.474;2023-05-20T09:22:27;78.05;;;73.45;;
25932;SDS011;13731;51.166;4.474;2023-05-20T09:24:53;16.48;;;15.27;;
25932;SDS011;13731;51.166;4.474;2023-05-20T09:27:20;16.30;;;15.15;;
25932;SDS011;13731;51.166;4.474;2023-05-20T09:29:46;17.10;;;15.82;;
25932;SDS011;13731;51.166;4.474;2023-05-20T09:32:13;16.13;;;15.13;;
25932;SDS011;13731;51.166;4.474;2023-05-20T09:34:40;15.70;;;14.77;;
25932;SDS011;13731;51.166;4.474;2023-05-20T09:37:07;18.00;;;16.77;;
25932;SDS011;13731;51.166;4.474;2023-05-20T09:40:16;16.80;;;15.68;;
25932;SDS011;13731;51.166;4.474;2023-05-20T09:42:36;15.32;;;14.23;;
25932;SDS011;13731;51.166;4.474;2023-05-20T09:45:06;15.98;;;15.07;;
25932;SDS011;13731;51.166;4.474;2023-05-20T09:47:34;15.63;;;14.38;;
25932;SDS011;13731;51.166;4.474;2023-05-20T09:50:02;16.50;;;15.32;;
25932;SDS011;13731;51.166;4.474;2023-05-20T09:52:32;15.02;;;13.77;;
25932;SDS011;13731;51.166;4.474;2023-05-20T09:55:04;16.63;;;15.52;;
25932;SDS011;13731;51.166;4.474;2023-05-20T09:57:32;14.35;;;13.45;;
25932;SDS011;13731;51.166;4.474;2023-05-20T09:59:59;16.45;;;15.52;;
25932;SDS011;13731;51.166;4.474;2023-05-20T10:02:25;12.75;;;12.05;;
25932;SDS011;13731;51.166;4.474;2023-05-20T10:04:52;14.75;;;13.88;;
25932;SDS011;13731;51.166;4.474;2023-05-20T10:07:27;14.43;;;13.07;;
25932;SDS011;13731;51.166;4.474;2023-05-20T10:15:12;9.80;;;9.02;;
25932;SDS011;13731;51.166;4.474;2023-05-20T10:20:31;9.70;;;9.07;;
25932;SDS011;13731;51.166;4.474;2023-05-20T10:22:57;9.32;;;8.73;;
25932;SDS011;13731;51.166;4.474;2023-05-20T10:25:24;9.10;;;8.18;;
25932;SDS011;13731;51.166;4.474;2023-05-20T10:28:03;10.50;;;9.57;;
25932;SDS011;13731;51.166;4.474;2023-05-20T10:30:32;10.00;;;9.02;;
25932;SDS011;13731;51.166;4.474;2023-05-20T10:33:02;9.90;;;9.20;;
25932;SDS011;13731;51.166;4.474;2023-05-20T10:35:29;11.70;;;10.35;;
25932;SDS011;13731;51.166;4.474;2023-05-20T10:38:06;10.88;;;10.07;;
25932;SDS011;13731;51.166;4.474;2023-05-20T10:40:36;10.38;;;9.75;;
25932;SDS011;13731;51.166;4.474;2023-05-20T10:43:11;11.00;;;10.40;;
25932;SDS011;13731;51.166;4.474;2023-05-20T10:45:48;11.82;;;11.02;;
25932;SDS011;13731;51.166;4.474;2023-05-20T10:48:28;12.75;;;11.82;;
25932;SDS011;13731;51.166;4.474;2023-05-20T10:50:56;13.50;;;12.70;;
25932;SDS011;13731;51.166;4.474;2023-05-20T10:53:26;15.10;;;14.07;;
25932;SDS011;13731;51.166;4.474;2023-05-20T10:55:53;17.50;;;16.55;;
25932;SDS011;13731;51.166;4.474;2023-05-20T10:58:23;17.15;;;16.30;;
25932;SDS011;13731;51.166;4.474;2023-05-20T11:00:49;19.52;;;18.45;;
25932;SDS011;13731;51.166;4.474;2023-05-20T11:03:17;16.80;;;16.00;;
25932;SDS011;13731;51.166;4.474;2023-05-20T11:05:46;17.83;;;16.83;;
25932;SDS011;13731;51.166;4.474;2023-05-20T11:08:12;19.58;;;18.48;;
25932;SDS011;13731;51.166;4.474;2023-05-20T11:10:40;19.73;;;18.45;;
25932;SDS011;13731;51.166;4.474;2023-05-20T11:13:06;17.30;;;16.50;;
25932;SDS011;13731;51.166;4.474;2023-05-20T11:15:35;12.85;;;12.23;;
25932;SDS011;13731;51.166;4.474;2023-05-20T11:18:02;12.98;;;12.13;;
25932;SDS011;13731;51.166;4.474;2023-05-20T11:20:29;13.95;;;13.02;;
25932;SDS011;13731;51.166;4.474;2023-05-20T11:22:59;12.57;;;11.70;;
25932;SDS011;13731;51.166;4.474;2023-05-20T11:25:26;16.77;;;15.57;;
25932;SDS011;13731;51.166;4.474;2023-05-20T11:27:52;11.90;;;11.10;;
25932;SDS011;13731;51.166;4.474;2023-05-20T11:30:18;12.52;;;11.60;;
25932;SDS011;13731;51.166;4.474;2023-05-20T11:33:00;12.90;;;12.00;;
25932;SDS011;13731;51.166;4.474;2023-05-20T11:35:29;13.90;;;12.88;;
25932;SDS011;13731;51.166;4.474;2023-05-20T11:38:03;12.93;;;12.13;;
25932;SDS011;13731;51.166;4.474;2023-05-20T11:40:31;10.98;;;10.43;;
25932;SDS011;13731;51.166;4.474;2023-05-20T11:43:01;14.35;;;13.35;;
25932;SDS011;13731;51.166;4.474;2023-05-20T11:45:40;13.52;;;12.70;;
25932;SDS011;13731;51.166;4.474;2023-05-20T11:48:07;12.57;;;11.85;;
25932;SDS011;13731;51.166;4.474;2023-05-20T11:50:34;14.23;;;13.18;;
25932;SDS011;13731;51.166;4.474;2023-05-20T11:53:04;13.27;;;12.38;;
25932;SDS011;13731;51.166;4.474;2023-05-20T11:55:34;11.20;;;10.43;;
25932;SDS011;13731;51.166;4.474;2023-05-20T11:58:10;9.60;;;8.90;;
25932;SDS011;13731;51.166;4.474;2023-05-20T12:00:39;8.73;;;8.02;;
25932;SDS011;13731;51.166;4.474;2023-05-20T12:03:05;8.20;;;7.43;;
25932;SDS011;13731;51.166;4.474;2023-05-20T12:05:31;9.00;;;8.15;;
25932;SDS011;13731;51.166;4.474;2023-05-20T12:07:57;8.45;;;7.85;;
25932;SDS011;13731;51.166;4.474;2023-05-20T12:10:22;9.00;;;8.10;;
25932;SDS011;13731;51.166;4.474;2023-05-20T12:12:48;8.30;;;7.70;;
25932;SDS011;13731;51.166;4.474;2023-05-20T12:15:14;9.05;;;8.18;;
25932;SDS011;13731;51.166;4.474;2023-05-20T12:17:47;13.52;;;7.32;;
25932;SDS011;13731;51.166;4.474;2023-05-20T12:20:15;8.70;;;8.07;;
25932;SDS011;13731;51.166;4.474;2023-05-20T12:22:42;9.38;;;8.52;;
25932;SDS011;13731;51.166;4.474;2023-05-20T12:25:12;8.73;;;7.95;;
25932;SDS011;13731;51.166;4.474;2023-05-20T12:27:40;9.32;;;8.52;;
25932;SDS011;13731;51.166;4.474;2023-05-20T12:30:07;9.18;;;8.32;;
25932;SDS011;13731;51.166;4.474;2023-05-20T12:32:37;8.77;;;8.07;;
25932;SDS011;13731;51.166;4.474;2023-05-20T12:37:28;8.77;;;8.20;;
25932;SDS011;13731;51.166;4.474;2023-05-20T12:39:55;8.93;;;8.32;;
25932;SDS011;13731;51.166;4.474;2023-05-20T12:42:21;9.20;;;8.32;;
25932;SDS011;13731;51.166;4.474;2023-05-20T12:44:46;8.73;;;7.97;;
25932;SDS011;13731;51.166;4.474;2023-05-20T12:47:12;8.73;;;7.95;;
25932;SDS011;13731;51.166;4.474;2023-05-20T12:49:38;9.90;;;9.30;;
25932;SDS011;13731;51.166;4.474;2023-05-20T12:52:04;10.07;;;9.10;;
25932;SDS011;13731;51.166;4.474;2023-05-20T12:54:30;10.68;;;9.95;;
25932;SDS011;13731;51.166;4.474;2023-05-20T12:56:56;10.13;;;9.55;;
25932;SDS011;13731;51.166;4.474;2023-05-20T12:59:22;10.13;;;9.52;;
25932;SDS011;13731;51.166;4.474;2023-05-20T13:01:48;12.65;;;11.05;;
25932;SDS011;13731;51.166;4.474;2023-05-20T13:04:14;12.38;;;11.27;;
25932;SDS011;13731;51.166;4.474;2023-05-20T13:06:40;12.88;;;12.13;;
25932;SDS011;13731;51.166;4.474;2023-05-20T13:09:06;12.88;;;12.20;;
25932;SDS011;13731;51.166;4.474;2023-05-20T13:11:33;16.25;;;15.32;;
25932;SDS011;13731;51.166;4.474;2023-05-20T13:13:59;18.90;;;17.65;;
25932;SDS011;13731;51.166;4.474;2023-05-20T13:16:25;21.30;;;20.00;;
25932;SDS011;13731;51.166;4.474;2023-05-20T13:18:51;23.17;;;21.08;;
25932;SDS011;13731;51.166;4.474;2023-05-20T13:21:17;22.35;;;20.55;;
25932;SDS011;13731;51.166;4.474;2023-05-20T13:23:43;22.10;;;20.58;;
25932;SDS011;13731;51.166;4.474;2023-05-20T13:26:09;19.60;;;18.52;;
25932;SDS011;13731;51.166;4.474;2023-05-20T13:28:35;18.85;;;17.85;;
25932;SDS011;13731;51.166;4.474;2023-05-20T13:31:01;18.20;;;16.60;;
25932;SDS011;13731;51.166;4.474;2023-05-20T13:33:29;16.67;;;15.43;;
25932;SDS011;13731;51.166;4.474;2023-05-20T13:35:55;15.07;;;14.18;;
25932;SDS011;13731;51.166;4.474;2023-05-20T13:38:20;16.63;;;15.52;;
25932;SDS011;13731;51.166;4.474;2023-05-20T13:40:46;16.00;;;15.00;;
25932;SDS011;13731;51.166;4.474;2023-05-20T13:43:13;15.57;;;14.70;;
25932;SDS011;13731;51.166;4.474;2023-05-20T13:45:39;17.50;;;16.58;;
25932;SDS011;13731;51.166;4.474;2023-05-20T13:48:05;21.90;;;20.60;;
25932;SDS011;13731;51.166;4.474;2023-05-20T13:50:31;21.58;;;20.38;;
25932;SDS011;13731;51.166;4.474;2023-05-20T13:52:56;26.00;;;24.80;;
25932;SDS011;13731;51.166;4.474;2023-05-20T13:55:22;21.60;;;20.52;;
25932;SDS011;13731;51.166;4.474;2023-05-20T13:57:48;20.35;;;19.05;;
25932;SDS011;13731;51.166;4.474;2023-05-20T14:00:17;15.20;;;14.20;;
25932;SDS011;13731;51.166;4.474;2023-05-20T14:02:43;17.13;;;15.90;;
25932;SDS011;13731;51.166;4.474;2023-05-20T14:05:08;17.13;;;15.85;;
25932;SDS011;13731;51.166;4.474;2023-05-20T14:07:34;22.27;;;21.17;;
25932;SDS011;13731;51.166;4.474;2023-05-20T14:10:00;21.70;;;20.17;;
25932;SDS011;13731;51.166;4.474;2023-05-20T14:12:26;24.70;;;23.35;;
25932;SDS011;13731;51.166;4.474;2023-05-20T14:14:52;20.30;;;19.00;;
25932;SDS011;13731;51.166;4.474;2023-05-20T14:17:18;20.67;;;19.48;;
25932;SDS011;13731;51.166;4.474;2023-05-20T14:19:44;19.95;;;18.75;;
25932;SDS011;13731;51.166;4.474;2023-05-20T14:22:10;20.73;;;19.70;;
25932;SDS011;13731;51.166;4.474;2023-05-20T14:24:38;21.17;;;20.23;;
25932;SDS011;13731;51.166;4.474;2023-05-20T14:27:04;21.38;;;20.30;;
25932;SDS011;13731;51.166;4.474;2023-05-20T14:29:30;23.67;;;22.30;;
25932;SDS011;13731;51.166;4.474;2023-05-20T14:31:56;19.25;;;18.35;;
25932;SDS011;13731;51.166;4.474;2023-05-20T14:34:21;20.38;;;19.05;;
25932;SDS011;13731;51.166;4.474;2023-05-20T14:36:47;19.05;;;17.98;;